createdAt,value
2022-08-26T00:01:42.206Z,8.43
2022-08-26T00:07:05.321Z,6.97
2022-08-26T00:09:33.273Z,6.78
2022-08-26T00:12:06.213Z,6.57
2022-08-26T00:14:33.229Z,5.65
2022-08-26T00:16:59.821Z,4.78
2022-08-26T00:19:26.340Z,4.78
2022-08-26T00:21:52.737Z,4.65
2022-08-26T00:24:20.772Z,10.00
2022-08-26T00:26:48.728Z,8.02
2022-08-26T00:29:15.852Z,5.43
2022-08-26T00:31:42.813Z,6.32
2022-08-26T00:34:12.312Z,8.50
2022-08-26T00:36:39.636Z,5.72
2022-08-26T00:39:07.417Z,5.82
2022-08-26T00:41:34.919Z,7.72
2022-08-26T00:44:01.421Z,6.57
2022-08-26T00:46:35.097Z,8.27
2022-08-26T00:49:11.912Z,6.30
2022-08-26T00:51:47.290Z,4.57
2022-08-26T00:54:16.347Z,6.90
2022-08-26T00:56:52.765Z,6.97
2022-08-26T00:59:20.259Z,8.68
2022-08-26T01:01:46.990Z,5.32
2022-08-26T01:04:18.312Z,6.22
2022-08-26T01:06:45.259Z,6.18
2022-08-26T01:09:12.135Z,5.18
2022-08-26T01:11:38.994Z,6.03
2022-08-26T01:14:07.380Z,16.83
2022-08-26T01:16:36.020Z,5.28
2022-08-26T01:19:15.730Z,5.15
2022-08-26T01:21:53.655Z,5.13
2022-08-26T01:24:20.243Z,6.00
2022-08-26T01:26:47.640Z,7.45
2022-08-26T01:29:19.056Z,5.50
2022-08-26T01:31:55.915Z,5.55
2022-08-26T01:34:35.948Z,5.25
2022-08-26T01:37:13.703Z,5.07
2022-08-26T01:39:43.822Z,5.57
2022-08-26T01:42:14.471Z,4.43
2022-08-26T01:45:06.302Z,6.35
2022-08-26T01:47:35.296Z,5.45
2022-08-26T01:50:07.796Z,6.32
2022-08-26T01:52:38.086Z,4.95
2022-08-26T01:55:05.392Z,4.68
2022-08-26T01:57:34.422Z,5.57
2022-08-26T02:00:06.314Z,4.93
2022-08-26T02:02:32.822Z,7.75
2022-08-26T02:05:05.812Z,5.75
2022-08-26T02:07:33.220Z,5.97
2022-08-26T02:09:59.839Z,5.38
2022-08-26T02:12:27.087Z,5.65
2022-08-26T02:14:58.216Z,7.65
2022-08-26T02:17:31.922Z,5.93
2022-08-26T02:19:58.572Z,4.65
2022-08-26T02:22:25.102Z,5.32
2022-08-26T02:25:00.684Z,5.15
2022-08-26T02:27:32.931Z,7.75
2022-08-26T02:30:14.686Z,5.60
2022-08-26T02:32:44.349Z,6.55
2022-08-26T02:35:13.791Z,5.18
2022-08-26T02:37:46.676Z,6.22
2022-08-26T02:40:18.267Z,6.07
2022-08-26T02:42:44.803Z,6.38
2022-08-26T02:45:11.175Z,6.85
2022-08-26T02:47:37.598Z,6.05
2022-08-26T02:50:05.039Z,4.97
2022-08-26T02:52:31.626Z,5.05
2022-08-26T02:54:58.938Z,9.05
2022-08-26T02:57:25.984Z,4.55
2022-08-26T02:59:52.579Z,6.72
2022-08-26T03:02:19.097Z,6.65
2022-08-26T03:04:57.490Z,6.40
2022-08-26T03:07:27.219Z,6.45
2022-08-26T03:09:53.659Z,5.78
2022-08-26T03:12:20.304Z,4.78
2022-08-26T03:14:47.558Z,5.75
2022-08-26T03:17:13.961Z,5.78
2022-08-26T03:19:40.319Z,6.80
2022-08-26T03:22:07.810Z,7.78
2022-08-26T03:24:34.864Z,6.28
2022-08-26T03:27:01.906Z,5.60
2022-08-26T03:29:52.926Z,8.82
2022-08-26T03:32:20.602Z,5.65
2022-08-26T03:34:47.006Z,4.95
2022-08-26T03:37:13.430Z,5.72
2022-08-26T03:39:39.811Z,6.65
2022-08-26T03:42:07.216Z,5.88
2022-08-26T03:44:34.025Z,6.10
2022-08-26T03:47:00.642Z,7.65
2022-08-26T03:49:28.964Z,6.90
2022-08-26T03:51:55.473Z,7.32
2022-08-26T03:54:21.802Z,6.35
2022-08-26T03:56:48.205Z,7.00
2022-08-26T03:59:14.571Z,7.05
2022-08-26T04:01:41.170Z,5.50
2022-08-26T04:04:07.696Z,5.57
2022-08-26T04:06:38.157Z,8.20
2022-08-26T04:09:10.565Z,4.95
2022-08-26T04:11:39.475Z,8.75
2022-08-26T04:14:09.545Z,6.13
2022-08-26T04:16:36.619Z,5.88
2022-08-26T04:19:03.431Z,4.72
2022-08-26T04:21:29.893Z,6.35
2022-08-26T04:23:56.309Z,5.82
2022-08-26T04:26:25.466Z,6.93
2022-08-26T04:28:54.594Z,8.35
2022-08-26T04:31:21.151Z,8.88
2022-08-26T04:33:51.833Z,11.98
2022-08-26T04:36:20.166Z,10.35
2022-08-26T04:38:47.432Z,9.13
2022-08-26T04:41:14.847Z,8.93
2022-08-26T04:43:44.520Z,10.05
2022-08-26T04:46:12.870Z,10.23
2022-08-26T04:48:40.898Z,8.55
2022-08-26T04:51:07.823Z,8.15
2022-08-26T04:53:34.731Z,5.82
2022-08-26T04:56:01.214Z,11.48
2022-08-26T04:58:30.890Z,8.13
2022-08-26T05:00:58.430Z,6.72
2022-08-26T05:03:30.295Z,6.97
2022-08-26T05:05:58.164Z,6.88
2022-08-26T05:08:25.145Z,8.95
2022-08-26T05:10:57.005Z,7.30
2022-08-26T05:13:26.406Z,7.05
2022-08-26T05:15:53.596Z,7.78
2022-08-26T05:18:22.923Z,7.40
2022-08-26T05:20:54.751Z,8.15
2022-08-26T05:23:22.866Z,7.28
2022-08-26T05:25:53.599Z,6.25
2022-08-26T05:28:22.436Z,7.22
2022-08-26T05:30:50.020Z,7.88
2022-08-26T05:33:18.893Z,6.28
2022-08-26T05:35:46.815Z,8.40
2022-08-26T05:38:16.495Z,8.68
2022-08-26T05:40:46.065Z,7.72
2022-08-26T05:43:13.352Z,9.80
2022-08-26T05:45:46.295Z,7.85
2022-08-26T05:48:14.424Z,14.90
2022-08-26T05:50:44.702Z,5.85
2022-08-26T05:53:13.115Z,6.63
2022-08-26T05:55:45.579Z,7.10
2022-08-26T05:58:12.359Z,6.00
2022-08-26T06:00:39.720Z,8.23
2022-08-26T06:03:10.999Z,10.13
2022-08-26T06:05:41.828Z,5.65
2022-08-26T06:08:11.300Z,6.22
2022-08-26T06:10:52.491Z,6.50
2022-08-26T06:13:24.062Z,5.65
2022-08-26T06:15:51.492Z,9.23
2022-08-26T06:18:23.980Z,6.55
2022-08-26T06:20:57.021Z,6.78
2022-08-26T06:23:45.154Z,7.18
2022-08-26T06:26:12.480Z,9.07
2022-08-26T06:28:38.928Z,8.45
2022-08-26T06:31:05.983Z,9.02
2022-08-26T06:33:32.556Z,7.70
2022-08-26T06:36:00.971Z,6.03
2022-08-26T06:38:28.440Z,10.35
2022-08-26T06:40:54.928Z,10.27
2022-08-26T06:43:24.283Z,8.48
2022-08-26T06:45:51.295Z,11.73
2022-08-26T06:48:21.429Z,7.07
2022-08-26T06:50:47.877Z,14.23
2022-08-26T06:53:16.934Z,7.93
2022-08-26T06:55:46.036Z,11.70
2022-08-26T06:58:14.104Z,10.73
2022-08-26T07:00:41.623Z,6.28
2022-08-26T07:03:13.886Z,12.23
2022-08-26T07:05:40.859Z,7.57
2022-08-26T07:08:07.425Z,15.93
2022-08-26T07:10:35.532Z,6.72
2022-08-26T07:13:02.528Z,7.13
2022-08-26T07:15:31.483Z,9.35
2022-08-26T07:17:58.000Z,6.88
2022-08-26T07:20:24.376Z,9.82
2022-08-26T07:22:51.371Z,8.75
2022-08-26T07:25:17.928Z,11.43
2022-08-26T07:27:46.156Z,8.27
2022-08-26T07:30:20.337Z,6.82
2022-08-26T07:32:46.727Z,9.90
2022-08-26T07:35:13.997Z,8.90
2022-08-26T07:37:40.534Z,7.03
2022-08-26T07:40:08.308Z,8.27
2022-08-26T07:42:35.858Z,6.55
2022-08-26T07:45:02.177Z,6.63
2022-08-26T07:47:28.531Z,6.65
2022-08-26T07:49:57.274Z,6.32
2022-08-26T07:52:27.367Z,6.53
2022-08-26T07:54:58.046Z,7.00
2022-08-26T07:57:26.178Z,10.32
2022-08-26T07:59:55.126Z,7.47
2022-08-26T08:02:22.659Z,10.60
2022-08-26T08:04:49.059Z,6.93
2022-08-26T08:07:15.525Z,7.20
2022-08-26T08:09:41.947Z,7.75
2022-08-26T08:12:09.351Z,11.80
2022-08-26T08:14:40.696Z,7.22
2022-08-26T08:17:08.551Z,8.75
2022-08-26T08:19:39.045Z,6.38
2022-08-26T08:22:06.885Z,5.60
2022-08-26T08:24:44.515Z,6.95
2022-08-26T08:27:10.865Z,11.63
2022-08-26T08:29:37.870Z,8.40
2022-08-26T08:32:04.925Z,6.30
2022-08-26T08:34:31.588Z,10.80
2022-08-26T08:36:58.421Z,6.35
2022-08-26T08:39:25.475Z,7.25
2022-08-26T08:42:13.881Z,6.55
2022-08-26T08:44:44.425Z,10.60
2022-08-26T08:47:37.645Z,6.00
2022-08-26T08:50:17.411Z,7.50
2022-08-26T08:52:50.605Z,8.48
2022-08-26T08:55:18.204Z,7.10
2022-08-26T08:58:02.185Z,7.93
2022-08-26T09:00:41.657Z,8.38
2022-08-26T09:03:32.155Z,8.07
2022-08-26T09:06:01.849Z,9.73
2022-08-26T09:08:35.025Z,9.15
2022-08-26T09:11:03.440Z,11.20
2022-08-26T09:13:31.740Z,14.32
2022-08-26T09:16:10.307Z,10.25
2022-08-26T09:19:24.533Z,6.57
2022-08-26T09:22:02.154Z,9.23
2022-08-26T09:24:39.625Z,11.65
2022-08-26T09:27:08.731Z,14.70
2022-08-26T09:29:45.325Z,9.80
2022-08-26T09:32:23.949Z,13.80
2022-08-26T09:35:00.922Z,10.32
2022-08-26T09:37:43.521Z,12.60
2022-08-26T09:40:34.945Z,10.45
2022-08-26T09:43:07.729Z,10.02
2022-08-26T09:45:35.726Z,11.20
2022-08-26T09:48:03.426Z,10.90
2022-08-26T09:50:54.767Z,11.02
2022-08-26T09:53:28.580Z,11.45
2022-08-26T09:56:23.174Z,9.68
2022-08-26T09:58:49.954Z,8.77
2022-08-26T10:01:30.089Z,12.88
2022-08-26T10:04:09.679Z,7.97
2022-08-26T10:06:42.105Z,7.40
2022-08-26T10:09:13.726Z,8.93
2022-08-26T10:11:49.458Z,7.65
2022-08-26T10:14:20.228Z,9.93
2022-08-26T10:17:00.330Z,12.63
2022-08-26T10:19:56.229Z,9.20
2022-08-26T10:22:30.276Z,8.45
2022-08-26T10:25:02.745Z,11.55
2022-08-26T10:27:49.705Z,16.70
2022-08-26T10:30:22.779Z,9.07
2022-08-26T10:32:54.599Z,14.82
2022-08-26T10:35:21.456Z,8.25
2022-08-26T10:37:53.420Z,19.80
2022-08-26T10:40:23.527Z,10.43
2022-08-26T10:42:58.391Z,6.32
2022-08-26T10:45:31.370Z,8.82
2022-08-26T10:48:06.777Z,12.07
2022-08-26T10:50:37.422Z,15.32
2022-08-26T10:53:17.712Z,16.63
2022-08-26T10:55:53.304Z,10.00
2022-08-26T10:59:00.283Z,7.00
2022-08-26T11:01:43.184Z,6.90
2022-08-26T11:04:35.081Z,16.42
2022-08-26T11:07:31.935Z,8.07
2022-08-26T11:10:05.015Z,9.65
2022-08-26T11:12:34.454Z,10.10
2022-08-26T11:15:07.112Z,13.50
2022-08-26T11:17:44.412Z,8.57
2022-08-26T11:20:23.739Z,7.53
2022-08-26T11:22:53.274Z,9.02
2022-08-26T11:25:26.455Z,8.90
2022-08-26T11:27:59.686Z,9.52
2022-08-26T11:30:36.935Z,10.90
2022-08-26T11:33:03.451Z,11.48
2022-08-26T11:35:37.453Z,10.02
2022-08-26T11:38:20.172Z,8.73
2022-08-26T11:40:56.320Z,11.50
2022-08-26T11:43:30.274Z,12.65
2022-08-26T11:46:05.209Z,13.18
2022-08-26T11:48:34.726Z,10.98
2022-08-26T11:51:07.668Z,13.27
2022-08-26T11:53:40.928Z,12.27
2022-08-26T11:56:31.595Z,15.68
2022-08-26T11:59:00.496Z,14.48
2022-08-26T12:01:32.176Z,13.82
2022-08-26T12:04:00.167Z,12.43
2022-08-26T12:06:43.443Z,12.80
2022-08-26T12:09:21.923Z,11.20
2022-08-26T12:11:48.342Z,9.75
2022-08-26T12:14:19.798Z,9.70
2022-08-26T12:16:46.452Z,11.63
2022-08-26T12:19:33.001Z,9.57
2022-08-26T12:22:23.423Z,11.77
2022-08-26T12:25:00.563Z,10.77
2022-08-26T12:27:28.785Z,11.88
2022-08-26T12:30:12.253Z,9.70
2022-08-26T12:32:50.981Z,7.40
2022-08-26T12:35:26.055Z,10.60
2022-08-26T12:37:54.485Z,9.20
2022-08-26T12:40:41.531Z,9.32
2022-08-26T12:43:08.927Z,6.95
2022-08-26T12:45:43.062Z,8.90
2022-08-26T12:48:26.793Z,8.98
2022-08-26T12:50:53.306Z,9.32
2022-08-26T12:53:31.716Z,8.55
2022-08-26T12:56:04.531Z,10.65
2022-08-26T12:58:31.528Z,7.05
2022-08-26T13:01:22.461Z,8.63
2022-08-26T13:03:49.862Z,7.18
2022-08-26T13:06:29.644Z,9.27
2022-08-26T13:09:01.088Z,9.93
2022-08-26T13:11:41.088Z,7.60
2022-08-26T13:14:10.772Z,10.30
2022-08-26T13:16:38.603Z,6.28
2022-08-26T13:19:10.349Z,8.80
2022-08-26T13:21:52.825Z,12.05
2022-08-26T13:24:39.989Z,12.93
2022-08-26T13:27:09.346Z,14.00
2022-08-26T13:29:36.187Z,18.27
2022-08-26T13:32:04.624Z,15.38
2022-08-26T13:34:32.319Z,16.73
2022-08-26T13:36:59.117Z,14.43
2022-08-26T13:39:26.416Z,19.20
2022-08-26T13:41:53.092Z,15.18
2022-08-26T13:44:19.759Z,14.00
2022-08-26T13:46:46.363Z,11.88
2022-08-26T13:49:12.820Z,9.43
2022-08-26T13:51:39.487Z,8.75
2022-08-26T13:54:06.156Z,7.20
2022-08-26T13:56:34.009Z,9.50
2022-08-26T13:59:01.275Z,12.02
2022-08-26T14:01:29.482Z,15.48
2022-08-26T14:03:56.030Z,12.40
2022-08-26T14:06:22.500Z,13.93
2022-08-26T14:08:49.350Z,13.13
2022-08-26T14:11:16.165Z,13.13
2022-08-26T14:13:42.934Z,12.85
2022-08-26T14:16:16.079Z,13.90
2022-08-26T14:18:45.289Z,13.77
2022-08-26T14:21:15.059Z,13.13
2022-08-26T14:23:41.810Z,14.68
2022-08-26T14:26:10.801Z,13.02
2022-08-26T14:28:41.656Z,16.02
2022-08-26T14:31:08.646Z,13.60
2022-08-26T14:33:38.109Z,13.88
2022-08-26T14:36:25.366Z,17.90
2022-08-26T14:38:52.489Z,14.88
2022-08-26T14:41:19.800Z,12.05
2022-08-26T14:43:57.724Z,12.95
2022-08-26T14:46:26.707Z,12.05
2022-08-26T14:48:53.106Z,12.15
2022-08-26T14:51:23.872Z,12.82
2022-08-26T14:54:09.703Z,12.27
2022-08-26T14:56:42.855Z,12.75
2022-08-26T14:59:10.236Z,12.68
2022-08-26T15:01:36.884Z,13.95
2022-08-26T15:04:03.592Z,13.85
2022-08-26T15:06:31.754Z,13.82
2022-08-26T15:08:58.878Z,18.67
2022-08-26T15:11:25.442Z,17.73
2022-08-26T15:13:52.858Z,14.05
2022-08-26T15:16:19.553Z,15.05
2022-08-26T15:18:46.001Z,16.70
2022-08-26T15:21:12.505Z,14.98
2022-08-26T15:23:39.396Z,20.80
2022-08-26T15:26:11.177Z,18.27
2022-08-26T15:28:38.448Z,15.75
2022-08-26T15:31:06.500Z,15.48
2022-08-26T15:33:34.091Z,14.10
2022-08-26T15:36:02.099Z,15.25
2022-08-26T15:38:30.964Z,14.25
2022-08-26T15:41:02.920Z,12.80
2022-08-26T15:43:30.509Z,12.25
2022-08-26T15:45:58.990Z,12.55
2022-08-26T15:48:26.313Z,11.85
2022-08-26T15:50:54.720Z,17.67
2022-08-26T15:53:22.424Z,11.90
2022-08-26T15:55:50.270Z,11.02
2022-08-26T15:58:17.216Z,13.88
2022-08-26T16:00:44.980Z,11.05
2022-08-26T16:03:12.103Z,9.48
2022-08-26T16:05:41.168Z,11.90
2022-08-26T16:08:08.216Z,9.82
2022-08-26T16:10:37.402Z,9.93
2022-08-26T16:13:05.011Z,8.70
2022-08-26T16:15:33.483Z,8.52
2022-08-26T16:18:02.155Z,10.38
2022-08-26T16:20:30.209Z,8.80
2022-08-26T16:22:56.970Z,8.55
2022-08-26T16:25:23.811Z,8.07
2022-08-26T16:27:52.097Z,12.65
2022-08-26T16:30:20.864Z,9.32
2022-08-26T16:32:48.787Z,11.48
2022-08-26T16:35:16.690Z,8.90
2022-08-26T16:37:43.422Z,9.32
2022-08-26T16:40:10.823Z,9.15
2022-08-26T16:42:38.093Z,7.35
2022-08-26T16:45:06.258Z,9.30
2022-08-26T16:47:36.786Z,12.05
2022-08-26T16:50:06.497Z,12.00
2022-08-26T16:52:32.985Z,9.57
2022-08-26T16:54:59.528Z,11.30
2022-08-26T16:57:26.045Z,13.90
2022-08-26T16:59:52.858Z,9.80
2022-08-26T17:02:22.249Z,8.98
2022-08-26T17:04:50.658Z,10.13
2022-08-26T17:07:17.121Z,9.18
2022-08-26T17:09:43.496Z,9.98
2022-08-26T17:12:09.841Z,11.60
2022-08-26T17:14:36.208Z,8.52
2022-08-26T17:17:03.135Z,9.20
2022-08-26T17:19:29.552Z,10.35
2022-08-26T17:22:02.791Z,11.90
2022-08-26T17:24:33.639Z,9.50
2022-08-26T17:27:00.696Z,12.50
2022-08-26T17:29:27.388Z,13.32
2022-08-26T17:31:53.813Z,11.45
2022-08-26T17:34:21.324Z,13.25
2022-08-26T17:36:47.746Z,13.48
2022-08-26T17:39:14.187Z,11.27
2022-08-26T17:41:40.991Z,11.73
2022-08-26T17:44:07.634Z,14.05
2022-08-26T17:46:38.127Z,20.73
2022-08-26T17:49:05.515Z,10.52
2022-08-26T17:51:31.947Z,10.25
2022-08-26T17:53:58.296Z,10.65
2022-08-26T17:56:27.184Z,11.80
2022-08-26T17:58:55.541Z,10.60
2022-08-26T18:01:26.196Z,11.98
2022-08-26T18:03:57.852Z,12.63
2022-08-26T18:06:26.146Z,13.80
2022-08-26T18:08:52.622Z,13.65
2022-08-26T18:11:22.879Z,14.57
2022-08-26T18:13:49.262Z,13.88
2022-08-26T18:16:17.699Z,11.82
2022-08-26T18:18:44.797Z,10.75
2022-08-26T18:21:16.882Z,13.68
2022-08-26T18:23:44.653Z,11.57
2022-08-26T18:26:17.348Z,12.52
2022-08-26T18:28:43.779Z,14.82
2022-08-26T18:31:11.557Z,12.63
2022-08-26T18:33:38.799Z,13.73
2022-08-26T18:36:05.270Z,13.98
2022-08-26T18:38:31.711Z,13.45
2022-08-26T18:40:59.247Z,15.90
2022-08-26T18:43:25.619Z,14.95
2022-08-26T18:46:02.116Z,16.70
2022-08-26T18:48:28.498Z,14.65
2022-08-26T18:50:55.354Z,16.52
2022-08-26T18:53:21.813Z,13.77
2022-08-26T18:55:48.187Z,15.98
2022-08-26T18:58:16.275Z,17.25
2022-08-26T19:00:42.692Z,12.85
2022-08-26T19:03:18.472Z,14.45
2022-08-26T19:05:45.755Z,13.55
2022-08-26T19:08:12.295Z,14.50
2022-08-26T19:10:39.769Z,14.15
2022-08-26T19:13:09.192Z,12.60
2022-08-26T19:15:41.285Z,13.55
2022-08-26T19:18:09.066Z,14.73
2022-08-26T19:20:46.524Z,14.63
2022-08-26T19:23:30.987Z,20.90
2022-08-26T19:28:24.839Z,14.60
2022-08-26T19:30:53.181Z,12.70
2022-08-26T19:33:19.956Z,13.55
2022-08-26T19:35:46.427Z,11.73
2022-08-26T19:38:13.471Z,12.05
2022-08-26T19:40:40.419Z,13.25
2022-08-26T19:43:07.280Z,11.43
2022-08-26T19:45:34.303Z,11.40
2022-08-26T19:48:00.982Z,15.02
2022-08-26T19:50:29.071Z,14.27
2022-08-26T19:52:55.503Z,10.30
2022-08-26T19:55:22.936Z,13.77
2022-08-26T19:57:52.187Z,12.50
2022-08-26T20:00:21.791Z,10.07
2022-08-26T20:02:48.611Z,11.25
2022-08-26T20:05:16.945Z,11.25
2022-08-26T20:07:43.720Z,9.60
2022-08-26T20:10:13.443Z,10.52
2022-08-26T20:12:41.629Z,14.45
2022-08-26T20:15:12.649Z,12.52
2022-08-26T20:17:40.306Z,12.10
2022-08-26T20:20:33.421Z,9.15
2022-08-26T20:23:02.328Z,13.38
2022-08-26T20:25:28.882Z,10.07
2022-08-26T20:27:55.251Z,9.48
2022-08-26T20:30:21.781Z,9.93
2022-08-26T20:32:48.359Z,11.18
2022-08-26T20:35:15.303Z,8.93
2022-08-26T20:37:41.681Z,8.35
2022-08-26T20:40:10.270Z,10.60
2022-08-26T20:42:37.543Z,11.77
2022-08-26T20:45:06.957Z,10.93
2022-08-26T20:47:33.906Z,9.07
2022-08-26T20:50:00.281Z,8.27
2022-08-26T20:52:26.681Z,8.80
2022-08-26T20:54:53.099Z,12.35
2022-08-26T20:57:19.488Z,10.55
2022-08-26T20:59:45.866Z,9.23
2022-08-26T21:02:12.335Z,7.72
2022-08-26T21:04:38.786Z,10.93
2022-08-26T21:07:05.157Z,8.85
2022-08-26T21:09:32.481Z,7.28
2022-08-26T21:11:59.084Z,10.32
2022-08-26T21:14:26.129Z,8.52
2022-08-26T21:16:53.119Z,9.88
2022-08-26T21:19:19.585Z,10.05
2022-08-26T21:21:48.107Z,7.85
2022-08-26T21:24:14.899Z,9.73
2022-08-26T21:26:41.680Z,11.13
2022-08-26T21:29:09.601Z,9.50
2022-08-26T21:31:40.018Z,10.52
2022-08-26T21:34:08.855Z,9.38
2022-08-26T21:36:35.232Z,10.00
2022-08-26T21:39:01.680Z,10.07
2022-08-26T21:41:28.610Z,9.43
2022-08-26T21:43:58.983Z,10.73
2022-08-26T21:46:28.288Z,10.50
2022-08-26T21:49:02.308Z,9.15
2022-08-26T21:51:34.134Z,7.38
2022-08-26T21:54:01.941Z,10.05
2022-08-26T21:56:31.446Z,7.20
2022-08-26T21:58:59.596Z,10.10
2022-08-26T22:01:29.362Z,8.07
2022-08-26T22:03:56.100Z,10.10
2022-08-26T22:06:24.135Z,8.88
2022-08-26T22:08:51.491Z,9.23
2022-08-26T22:11:18.956Z,10.52
2022-08-26T22:13:46.249Z,9.13
2022-08-26T22:16:13.777Z,11.13
2022-08-26T22:18:43.691Z,8.65
2022-08-26T22:21:13.459Z,9.07
2022-08-26T22:23:40.075Z,10.80
2022-08-26T22:26:08.579Z,9.25
2022-08-26T22:28:35.940Z,12.82
2022-08-26T22:31:02.393Z,10.68
2022-08-26T22:33:28.943Z,9.20
2022-08-26T22:35:55.614Z,8.18
2022-08-26T22:38:23.850Z,8.38
2022-08-26T22:40:56.412Z,8.38
2022-08-26T22:43:24.847Z,7.68
2022-08-26T22:45:52.786Z,9.00
2022-08-26T22:48:22.423Z,8.32
2022-08-26T22:50:49.677Z,8.85
2022-08-26T22:53:17.568Z,7.60
2022-08-26T22:55:44.620Z,8.70
2022-08-26T22:58:13.227Z,7.18
2022-08-26T23:00:40.820Z,7.75
2022-08-26T23:03:07.768Z,8.90
2022-08-26T23:05:34.584Z,12.02
2022-08-26T23:08:01.781Z,9.18
2022-08-26T23:10:28.228Z,6.32
2022-08-26T23:12:54.635Z,5.93
2022-08-26T23:15:21.230Z,9.32
2022-08-26T23:17:48.394Z,10.30
2022-08-26T23:20:26.211Z,7.88
2022-08-26T23:22:53.366Z,10.82
2022-08-26T23:25:20.304Z,7.70
2022-08-26T23:27:46.984Z,7.22
2022-08-26T23:30:18.033Z,7.03
2022-08-26T23:32:45.001Z,10.75
2022-08-26T23:35:12.756Z,6.55
2022-08-26T23:37:44.032Z,5.93
2022-08-26T23:40:32.479Z,9.25
2022-08-26T23:43:01.221Z,8.45
2022-08-26T23:45:27.828Z,10.07
2022-08-26T23:47:54.959Z,7.72
2022-08-26T23:50:23.719Z,9.15
2022-08-26T23:53:08.697Z,6.43
2022-08-26T23:55:39.012Z,8.80
2022-08-26T23:58:06.367Z,7.35
